Time;durP1;ratioP1;P1;durP2;ratioP2;P2;SDS_P1;SDS_P2;PMS_P1;PMS_P2;Temp;Humidity;BMP_temperature;BMP_pressure;BME280_temperature;BME280_humidity;BME280_pressure;Samples;Min_cycle;Max_cycle;Signal;HPM_P1;HPM_P2
2022/06/21 00:01:16;;;;;;;5.70;2.28;;;11.90;88.40;;;;;;5098402;28;20067;-93
2022/06/21 00:03:44;;;;;;;5.82;1.98;;;11.80;88.80;;;;;;5097403;28;20173;-93
2022/06/21 00:06:17;;;;;;;4.68;2.30;;;11.70;89.40;;;;;;5096821;28;20024;-92
2022/06/21 00:08:43;;;;;;;5.80;2.25;;;11.60;90.10;;;;;;5098304;28;20016;-94
2022/06/21 00:11:31;;;;;;;5.22;1.83;;;11.60;90.50;;;;;;5098062;28;20084;-95
2022/06/21 00:13:57;;;;;;;6.80;2.10;;;11.50;90.80;;;;;;5096590;28;20024;-94
2022/06/21 00:16:26;;;;;;;6.85;2.15;;;11.50;91.10;;;;;;5096928;28;20542;-94
2022/06/21 00:18:52;;;;;;;4.28;2.00;;;11.40;91.50;;;;;;5096875;28;20051;-92
2022/06/21 00:21:24;;;;;;;7.25;2.13;;;11.40;91.80;;;;;;5096853;28;20039;-95
2022/06/21 00:23:52;;;;;;;6.28;2.63;;;11.40;92.20;;;;;;5098422;28;20023;-93
2022/06/21 00:26:21;;;;;;;5.82;2.30;;;11.40;92.50;;;;;;5096155;28;20077;-93
2022/06/21 00:28:46;;;;;;;3.22;1.95;;;11.30;92.80;;;;;;5096355;28;20035;-92
2022/06/21 00:31:28;;;;;;;7.35;2.92;;;11.30;93.10;;;;;;5096618;28;20028;-94
2022/06/21 00:33:55;;;;;;;3.50;2.00;;;11.20;93.40;;;;;;5096298;28;20114;-93
2022/06/21 00:36:32;;;;;;;4.55;2.53;;;11.20;93.70;;;;;;5096439;28;20024;-93
2022/06/21 00:39:00;;;;;;;4.57;2.30;;;11.20;93.90;;;;;;5096721;28;20024;-93
2022/06/21 00:41:47;;;;;;;6.43;2.20;;;11.10;94.20;;;;;;5096485;28;20032;-94
2022/06/21 00:44:30;;;;;;;4.68;2.30;;;11.00;94.60;;;;;;5096138;28;20031;-94
2022/06/21 00:47:23;;;;;;;8.30;2.33;;;10.90;94.80;;;;;;5096913;28;20105;-94
2022/06/21 00:50:02;;;;;;;6.07;2.38;;;10.80;95.20;;;;;;5095966;28;20416;-93
2022/06/21 00:52:38;;;;;;;6.75;2.55;;;10.80;95.80;;;;;;5096607;28;20038;-95
2022/06/21 00:55:10;;;;;;;5.53;2.33;;;10.70;96.30;;;;;;5097115;28;20018;-94
2022/06/21 00:57:53;;;;;;;6.78;2.40;;;10.70;96.70;;;;;;5098184;28;20031;-92
2022/06/21 01:00:25;;;;;;;5.72;2.58;;;10.70;97.30;;;;;;5096612;28;20059;-93
2022/06/21 01:02:51;;;;;;;7.10;2.60;;;10.70;97.70;;;;;;5097436;28;20030;-94
2022/06/21 01:05:16;;;;;;;6.50;2.50;;;10.70;98.10;;;;;;5097431;28;20495;-94
2022/06/21 01:07:43;;;;;;;5.13;2.33;;;10.70;98.60;;;;;;5099171;28;20020;-94
2022/06/21 01:10:15;;;;;;;6.07;2.35;;;10.70;99.20;;;;;;5111840;28;20028;-91
2022/06/21 01:12:51;;;;;;;6.70;2.13;;;10.70;99.70;;;;;;5105223;28;20151;-93
2022/06/21 01:15:28;;;;;;;3.80;2.20;;;10.60;99.90;;;;;;5096953;28;20028;-94
2022/06/21 01:18:01;;;;;;;7.15;2.35;;;10.60;99.90;;;;;;5096997;28;20038;-94
2022/06/21 01:20:31;;;;;;;7.03;2.70;;;10.70;99.90;;;;;;5104467;28;20097;-92
2022/06/21 01:23:10;;;;;;;6.53;2.13;;;10.60;99.90;;;;;;5104939;28;20024;-94
2022/06/21 01:25:44;;;;;;;7.70;2.30;;;10.60;99.90;;;;;;5097777;28;20461;-92
2022/06/21 01:28:11;;;;;;;5.25;1.92;;;10.60;99.90;;;;;;5104315;28;20031;-90
2022/06/21 01:30:38;;;;;;;5.32;2.20;;;10.50;99.90;;;;;;5111517;28;20036;-93
2022/06/21 01:33:06;;;;;;;6.05;2.45;;;10.50;99.90;;;;;;5095913;28;20020;-94
2022/06/21 01:35:49;;;;;;;9.02;2.85;;;10.40;99.90;;;;;;5096904;28;20047;-94
2022/06/21 01:38:25;;;;;;;6.40;3.13;;;10.30;99.90;;;;;;5099485;28;20054;-94
2022/06/21 01:40:56;;;;;;;7.55;2.40;;;10.20;99.90;;;;;;5100073;28;20068;-94
2022/06/21 01:43:27;;;;;;;7.93;2.88;;;10.10;99.90;;;;;;5100074;28;20123;-95
2022/06/21 01:46:00;;;;;;;5.85;2.50;;;10.00;99.90;;;;;;5099286;28;20041;-94
2022/06/21 01:48:55;;;;;;;5.05;2.60;;;10.00;99.90;;;;;;5099786;28;20020;-93
2022/06/21 01:51:43;;;;;;;5.65;2.38;;;10.00;99.90;;;;;;5094320;28;20135;-94
2022/06/21 01:54:13;;;;;;;6.38;2.70;;;10.00;99.90;;;;;;5102706;28;20028;-93
2022/06/21 01:56:40;;;;;;;4.95;2.00;;;9.90;99.90;;;;;;5106148;28;20024;-93
2022/06/21 01:59:16;;;;;;;6.13;2.72;;;9.90;99.90;;;;;;5115997;28;20063;-88
2022/06/21 02:02:10;;;;;;;5.15;2.38;;;9.90;99.90;;;;;;5110639;28;20051;-93
2022/06/21 02:04:44;;;;;;;6.05;2.30;;;9.90;99.90;;;;;;5098812;28;20032;-91
2022/06/21 02:07:16;;;;;;;6.57;2.50;;;9.90;99.90;;;;;;5110546;28;20024;-89
2022/06/21 02:10:05;;;;;;;4.28;2.30;;;9.80;99.90;;;;;;5117157;28;20054;-94
2022/06/21 02:12:32;;;;;;;10.13;2.63;;;9.70;99.90;;;;;;5099887;28;20130;-93
2022/06/21 02:15:00;;;;;;;8.65;3.08;;;9.70;99.90;;;;;;5098680;28;20036;-94
2022/06/21 02:17:38;;;;;;;6.60;2.55;;;9.60;99.90;;;;;;5098462;28;20115;-95
2022/06/21 02:20:30;;;;;;;6.32;2.80;;;9.60;99.90;;;;;;5099645;28;20032;-95
2022/06/21 02:22:56;;;;;;;6.90;3.20;;;9.50;99.90;;;;;;5098497;28;20021;-94
2022/06/21 02:25:24;;;;;;;8.00;2.83;;;9.40;99.90;;;;;;5099473;28;20076;-94
2022/06/21 02:27:53;;;;;;;5.60;3.05;;;9.40;99.90;;;;;;5100144;28;20457;-94
2022/06/21 02:30:24;;;;;;;3.95;2.47;;;9.30;99.90;;;;;;5109562;28;20035;-94
2022/06/21 02:32:52;;;;;;;6.32;2.35;;;9.30;99.90;;;;;;5114290;28;20020;-92
2022/06/21 02:35:30;;;;;;;4.75;2.50;;;9.30;99.90;;;;;;5117902;28;20019;-90
2022/06/21 02:37:59;;;;;;;4.95;2.50;;;9.40;99.90;;;;;;5118808;28;20012;-89
2022/06/21 02:40:33;;;;;;;5.43;2.53;;;9.40;99.90;;;;;;5118827;28;20040;-88
2022/06/21 02:43:21;;;;;;;5.15;2.30;;;9.40;99.90;;;;;;5101530;28;20024;-87
2022/06/21 02:45:55;;;;;;;6.72;2.60;;;9.40;99.90;;;;;;5102852;28;20039;-95
2022/06/21 02:48:27;;;;;;;7.60;4.07;;;9.40;99.90;;;;;;5100165;28;20025;-92
2022/06/21 02:51:11;;;;;;;6.50;3.20;;;9.40;99.90;;;;;;5101340;28;20123;-94
2022/06/21 02:53:50;;;;;;;4.72;3.05;;;9.30;99.90;;;;;;5098735;28;20084;-92
2022/06/21 02:56:30;;;;;;;6.13;3.15;;;9.20;99.90;;;;;;5099181;28;20251;-95
2022/06/21 02:59:01;;;;;;;3.73;2.60;;;9.20;99.90;;;;;;5098936;28;20043;-93
2022/06/21 03:01:35;;;;;;;5.30;2.80;;;9.10;99.90;;;;;;5100596;28;20304;-94
2022/06/21 03:04:01;;;;;;;5.32;2.72;;;9.00;99.90;;;;;;5098704;28;20028;-95
2022/06/21 03:06:29;;;;;;;6.70;3.00;;;9.00;99.90;;;;;;5099569;28;20044;-95
2022/06/21 03:09:01;;;;;;;9.25;3.00;;;9.00;99.90;;;;;;5097831;28;20039;-94
2022/06/21 03:11:34;;;;;;;5.53;3.05;;;9.00;99.90;;;;;;5107611;28;20016;-93
2022/06/21 03:14:03;;;;;;;6.80;3.10;;;8.90;99.90;;;;;;5098106;28;20020;-92
2022/06/21 03:16:30;;;;;;;4.80;3.25;;;8.90;99.90;;;;;;5097578;28;20028;-92
2022/06/21 03:19:00;;;;;;;6.60;2.75;;;8.90;99.90;;;;;;5097854;28;20024;-92
2022/06/21 03:21:30;;;;;;;6.60;2.85;;;8.80;99.90;;;;;;5097745;28;20032;-93
2022/06/21 03:23:58;;;;;;;7.35;2.63;;;8.80;99.90;;;;;;5098235;28;20024;-93
2022/06/21 03:26:26;;;;;;;6.65;2.70;;;8.90;99.90;;;;;;5099730;28;20069;-93
2022/06/21 03:28:52;;;;;;;6.22;2.80;;;8.90;99.90;;;;;;5098612;28;20129;-94
2022/06/21 03:31:20;;;;;;;7.15;2.95;;;8.80;99.90;;;;;;5097663;28;20023;-93
2022/06/21 03:33:50;;;;;;;8.07;3.28;;;8.80;99.90;;;;;;5097327;28;20140;-94
2022/06/21 03:36:22;;;;;;;4.93;2.60;;;8.70;99.90;;;;;;5096863;28;20031;-91
2022/06/21 03:39:08;;;;;;;5.15;2.63;;;8.70;99.90;;;;;;5097464;28;20024;-95
2022/06/21 03:41:45;;;;;;;4.90;2.80;;;8.60;99.90;;;;;;5098156;28;20032;-94
2022/06/21 03:44:16;;;;;;;4.95;2.75;;;8.50;99.90;;;;;;5097105;28;20042;-93
2022/06/21 03:46:58;;;;;;;7.05;3.22;;;8.50;99.90;;;;;;5098822;28;20032;-91
2022/06/21 03:49:47;;;;;;;5.45;2.42;;;8.50;99.90;;;;;;5107811;28;20028;-94
2022/06/21 03:52:41;;;;;;;10.45;2.97;;;8.50;99.90;;;;;;5096580;28;20039;-94
2022/06/21 03:55:38;;;;;;;4.25;3.00;;;8.50;99.90;;;;;;5098009;28;20031;-94
2022/06/21 03:58:22;;;;;;;6.55;2.80;;;8.50;99.90;;;;;;5078308;28;20480;-94
2022/06/21 04:01:06;;;;;;;5.85;2.70;;;8.60;99.90;;;;;;5095376;28;20052;-93
2022/06/21 04:03:45;;;;;;;4.70;2.30;;;8.60;99.90;;;;;;5096691;28;20016;-93
2022/06/21 04:06:17;;;;;;;5.22;2.80;;;8.70;99.90;;;;;;5096389;28;20123;-94
2022/06/21 04:09:21;;;;;;;5.82;2.97;;;8.70;99.90;;;;;;5096541;28;20496;-95
2022/06/21 04:12:11;;;;;;;3.85;2.33;;;8.70;99.90;;;;;;5093523;28;20035;-94
2022/06/21 04:14:53;;;;;;;5.72;2.80;;;8.70;99.90;;;;;;5096956;28;20020;-93
2022/06/21 04:17:22;;;;;;;5.80;3.15;;;8.70;99.90;;;;;;5096271;28;20108;-89
2022/06/21 04:19:53;;;;;;;4.32;2.83;;;8.60;99.90;;;;;;5095780;28;20103;-94
2022/06/21 04:22:34;;;;;;;7.78;2.70;;;8.50;99.90;;;;;;5096448;28;20046;-94
2022/06/21 04:25:19;;;;;;;6.32;3.15;;;8.50;99.90;;;;;;5096639;28;20152;-94
2022/06/21 04:27:52;;;;;;;7.70;2.63;;;8.40;99.90;;;;;;5097503;28;20020;-93
2022/06/21 04:30:25;;;;;;;5.43;2.65;;;8.30;99.90;;;;;;5096354;28;20390;-94
2022/06/21 04:33:13;;;;;;;7.05;3.22;;;8.30;99.90;;;;;;5095952;28;20035;-90
2022/06/21 04:35:59;;;;;;;5.78;2.95;;;8.30;99.90;;;;;;5096068;28;20054;-92
2022/06/21 04:38:35;;;;;;;5.53;2.85;;;8.20;99.90;;;;;;5096632;28;20107;-94
2022/06/21 04:41:21;;;;;;;6.50;3.45;;;8.20;99.90;;;;;;5096592;28;20059;-93
2022/06/21 04:43:57;;;;;;;7.90;3.17;;;8.20;99.90;;;;;;5102893;28;20046;-92
2022/06/21 04:46:43;;;;;;;7.82;3.42;;;8.20;99.90;;;;;;5113834;28;20092;-88
2022/06/21 04:49:16;;;;;;;5.88;2.92;;;8.20;99.90;;;;;;5114268;28;20032;-94
2022/06/21 04:52:08;;;;;;;7.82;2.95;;;8.20;99.90;;;;;;5111498;28;20024;-93
2022/06/21 04:54:36;;;;;;;6.63;3.08;;;8.20;99.90;;;;;;5103314;28;20024;-93
2022/06/21 04:57:34;;;;;;;6.05;3.00;;;8.20;99.90;;;;;;5107161;28;20043;-93
2022/06/21 05:00:10;;;;;;;5.28;2.95;;;8.10;99.90;;;;;;5103977;28;20048;-89
2022/06/21 05:03:03;;;;;;;5.93;2.60;;;8.10;99.90;;;;;;5116366;28;20012;-90
2022/06/21 05:05:33;;;;;;;6.50;2.97;;;8.00;99.90;;;;;;5114679;28;20027;-92
2022/06/21 05:08:11;;;;;;;6.55;2.97;;;8.00;99.90;;;;;;5111626;28;20055;-92
2022/06/21 05:10:46;;;;;;;7.25;3.17;;;8.00;99.90;;;;;;5105034;28;20028;-92
2022/06/21 05:13:38;;;;;;;8.85;3.75;;;8.10;99.90;;;;;;5101388;28;20031;-91
2022/06/21 05:16:26;;;;;;;3.92;2.72;;;8.10;99.90;;;;;;5096466;28;20020;-93
2022/06/21 05:18:55;;;;;;;3.90;2.88;;;8.20;99.90;;;;;;5101173;28;20031;-93
2022/06/21 05:21:30;;;;;;;6.25;2.80;;;8.20;99.90;;;;;;5105491;28;20067;-93
2022/06/21 05:23:56;;;;;;;8.88;2.55;;;8.30;99.90;;;;;;5106257;28;20023;-92
2022/06/21 05:26:33;;;;;;;7.95;3.40;;;8.40;99.90;;;;;;5105874;28;20500;-92
2022/06/21 05:29:09;;;;;;;5.40;2.60;;;8.50;99.90;;;;;;5104506;28;20016;-92
2022/06/21 05:31:40;;;;;;;8.23;3.20;;;8.60;99.90;;;;;;5104542;28;20020;-92
2022/06/21 05:34:10;;;;;;;7.93;3.20;;;8.80;99.90;;;;;;5105077;28;20039;-93
2022/06/21 05:36:41;;;;;;;5.07;2.83;;;8.80;99.90;;;;;;5105115;28;20020;-92
2022/06/21 05:39:20;;;;;;;;;;;8.90;99.90;;;;;;5106040;28;20060;-92
2022/06/21 05:41:49;;;;;;;4.90;2.90;;;9.00;99.90;;;;;;5116189;28;19923;-92
2022/06/21 05:44:32;;;;;;;6.07;3.33;;;9.00;99.90;;;;;;5114321;28;20135;-91
2022/06/21 05:47:08;;;;;;;6.03;2.83;;;9.00;99.90;;;;;;5113786;28;20020;-92
2022/06/21 05:49:35;;;;;;;5.05;2.92;;;9.10;99.90;;;;;;5111616;28;20030;-94
2022/06/21 05:52:06;;;;;;;5.53;2.67;;;9.20;99.90;;;;;;5119696;28;20082;-94
2022/06/21 05:54:38;;;;;;;9.73;2.80;;;9.30;99.90;;;;;;5119537;28;20035;-87
2022/06/21 05:57:09;;;;;;;5.88;2.63;;;9.50;99.90;;;;;;5120081;28;20022;-92
2022/06/21 05:59:35;;;;;;;7.68;2.75;;;9.60;99.90;;;;;;5114054;28;20089;-95
2022/06/21 06:02:14;;;;;;;7.50;3.42;;;9.70;99.90;;;;;;5105377;28;20044;-95
2022/06/21 06:05:04;;;;;;;4.63;2.80;;;9.90;99.90;;;;;;5105063;28;20024;-94
2022/06/21 06:07:37;;;;;;;6.72;3.25;;;10.00;99.90;;;;;;5099868;28;20073;-93
2022/06/21 06:10:05;;;;;;;5.53;3.10;;;10.20;99.90;;;;;;5103032;28;20020;-92
2022/06/21 06:12:37;;;;;;;7.72;3.15;;;10.30;99.90;;;;;;5106247;28;20027;-93
2022/06/21 06:15:19;;;;;;;5.80;3.05;;;10.50;99.90;;;;;;5099616;28;20024;-90
2022/06/21 06:17:59;;;;;;;5.10;2.55;;;10.60;99.90;;;;;;5093066;28;20030;-94
2022/06/21 06:21:03;;;;;;;8.88;3.15;;;10.70;99.90;;;;;;5100731;28;20028;-94
2022/06/21 06:23:40;;;;;;;5.85;3.00;;;10.80;99.90;;;;;;4997294;28;20052;-95
2022/06/21 06:26:19;;;;;;;6.93;2.88;;;10.80;99.90;;;;;;4996819;28;20042;-92
2022/06/21 06:29:06;;;;;;;4.07;2.70;;;10.90;99.90;;;;;;4994205;28;20034;-93
2022/06/21 06:31:34;;;;;;;7.43;2.80;;;11.00;99.90;;;;;;4992581;28;20053;-94
2022/06/21 06:34:08;;;;;;;6.47;3.03;;;11.00;99.90;;;;;;4992419;28;20045;-95
2022/06/21 06:36:53;;;;;;;7.63;3.00;;;11.20;99.90;;;;;;4994890;28;20022;-93
2022/06/21 06:39:28;;;;;;;4.68;2.83;;;11.30;99.90;;;;;;5022378;28;20027;-92
2022/06/21 06:42:05;;;;;;;5.75;3.13;;;11.40;99.90;;;;;;4998292;28;20034;-92
2022/06/21 06:44:39;;;;;;;8.27;2.92;;;11.60;99.90;;;;;;4996501;28;20066;-92
2022/06/21 06:47:30;;;;;;;6.13;2.50;;;11.70;99.90;;;;;;5007722;28;20022;-91
2022/06/21 06:50:20;;;;;;;6.03;2.80;;;11.80;99.90;;;;;;5025635;28;20028;-91
2022/06/21 06:52:58;;;;;;;9.90;3.05;;;12.00;99.90;;;;;;5012613;28;20025;-90
2022/06/21 06:55:41;;;;;;;8.25;2.50;;;12.20;99.90;;;;;;5020967;28;20038;-92
2022/06/21 06:58:32;;;;;;;5.03;2.63;;;12.30;99.90;;;;;;5088345;28;20032;-91
2022/06/21 07:01:19;;;;;;;4.10;2.13;;;12.40;99.90;;;;;;5110755;28;20096;-95
2022/06/21 07:03:50;;;;;;;7.47;2.65;;;12.60;99.90;;;;;;5109476;28;20030;-95
2022/06/21 07:06:20;;;;;;;;;;;12.70;99.90;;;;;;5099723;28;20397;-93
2022/06/21 07:08:55;;;;;;;6.07;2.60;;;12.90;99.90;;;;;;5099994;28;19908;-92
2022/06/21 07:11:35;;;;;;;7.97;2.28;;;13.00;99.90;;;;;;5101788;28;20032;-92
2022/06/21 07:14:02;;;;;;;4.20;2.20;;;13.10;99.90;;;;;;5123814;27;20484;-92
2022/06/21 07:16:34;;;;;;;7.05;2.20;;;13.30;99.90;;;;;;5098760;28;20032;-91
2022/06/21 07:19:01;;;;;;;4.07;2.10;;;13.50;99.90;;;;;;5105382;28;20019;-94
2022/06/21 07:21:27;;;;;;;4.15;1.80;;;13.60;99.90;;;;;;5103425;28;20044;-92
2022/06/21 07:23:57;;;;;;;6.32;1.95;;;13.70;99.90;;;;;;5120513;28;20024;-94
2022/06/21 07:26:40;;;;;;;5.20;1.70;;;13.80;99.90;;;;;;5110538;28;20112;-92
2022/06/21 07:29:18;;;;;;;5.45;1.88;;;14.00;99.90;;;;;;5110803;28;20046;-93
2022/06/21 07:31:56;;;;;;;2.72;1.90;;;14.20;99.90;;;;;;5117908;28;20097;-92
2022/06/21 07:34:35;;;;;;;4.32;1.10;;;14.30;99.90;;;;;;5118397;28;20444;-92
2022/06/21 07:37:07;;;;;;;2.53;1.00;;;14.50;99.90;;;;;;5119044;28;20032;-93
2022/06/21 07:39:42;;;;;;;4.90;1.20;;;14.70;99.90;;;;;;5120118;28;20080;-95
2022/06/21 07:42:15;;;;;;;5.35;0.93;;;14.90;99.90;;;;;;5126268;28;20066;-92
2022/06/21 07:44:52;;;;;;;2.38;0.98;;;15.00;99.90;;;;;;5127628;27;20068;-86
2022/06/21 07:47:32;;;;;;;1.88;0.90;;;15.20;99.90;;;;;;5117138;28;20036;-92
2022/06/21 07:50:32;;;;;;;2.40;0.88;;;15.40;98.10;;;;;;5110019;28;20024;-91
2022/06/21 07:53:03;;;;;;;3.33;0.93;;;15.50;96.30;;;;;;5121970;28;20551;-90
2022/06/21 07:55:39;;;;;;;7.53;1.10;;;15.70;95.50;;;;;;5101488;28;20071;-91
2022/06/21 07:58:24;;;;;;;4.00;1.00;;;15.90;94.50;;;;;;5106420;28;20077;-88
2022/06/21 08:06:43;;;;;;;6.88;1.15;;;16.50;91.80;;;;;;5099532;28;20063;-90
2022/06/21 08:09:34;;;;;;;4.22;1.08;;;16.70;91.10;;;;;;5100758;28;20481;-90
2022/06/21 08:12:01;;;;;;;4.30;1.30;;;16.80;90.20;;;;;;5104798;28;20039;-87
2022/06/21 08:14:34;;;;;;;5.55;1.10;;;17.00;89.70;;;;;;5111751;28;20016;-88
2022/06/21 08:17:19;;;;;;;2.08;1.23;;;17.20;88.60;;;;;;5104468;28;20465;-91
2022/06/21 08:20:00;;;;;;;3.22;0.90;;;17.30;87.70;;;;;;5095495;28;20040;-90
2022/06/21 08:22:55;;;;;;;3.97;1.10;;;17.50;86.90;;;;;;5096820;28;20021;-88
2022/06/21 08:25:37;;;;;;;5.80;1.30;;;17.60;84.70;;;;;;5086321;28;20069;-90
2022/06/21 08:28:14;;;;;;;4.82;1.30;;;17.70;83.90;;;;;;5095230;28;20031;-90
2022/06/21 08:31:00;;;;;;;3.70;1.02;;;17.90;83.40;;;;;;5096291;28;20048;-91
2022/06/21 08:33:39;;;;;;;3.28;1.40;;;18.00;82.30;;;;;;5098811;28;20024;-92
2022/06/21 08:36:12;;;;;;;3.50;1.23;;;18.10;81.10;;;;;;5097236;28;20495;-93
2022/06/21 08:38:43;;;;;;;4.82;1.20;;;18.30;80.20;;;;;;5106972;28;20024;-92
2022/06/21 08:48:00;;;;;;;5.53;1.38;;;18.80;76.60;;;;;;5033636;28;20073;-91
2022/06/21 08:50:54;;;;;;;3.13;1.40;;;19.00;76.10;;;;;;5017189;28;20477;-91
2022/06/21 08:54:00;;;;;;;3.95;1.13;;;19.20;75.20;;;;;;5016624;28;20033;-92
2022/06/21 08:56:40;;;;;;;5.07;1.50;;;19.40;75.00;;;;;;5017273;28;20075;-91
2022/06/21 08:59:27;;;;;;;10.20;1.92;;;19.60;74.90;;;;;;5019820;28;20041;-91
2022/06/21 09:02:23;;;;;;;4.65;1.60;;;19.80;74.40;;;;;;5019523;28;20045;-87
2022/06/21 09:05:09;;;;;;;9.80;1.73;;;20.00;73.40;;;;;;5019886;28;20029;-91
2022/06/21 09:08:16;;;;;;;8.90;1.70;;;20.20;73.20;;;;;;5036758;28;20479;-92
2022/06/21 09:11:17;;;;;;;6.18;1.58;;;20.40;72.60;;;;;;5017943;28;20610;-90
2022/06/21 09:14:11;;;;;;;4.95;1.60;;;20.60;71.90;;;;;;5020127;28;20092;-93
2022/06/21 09:17:00;;;;;;;3.80;1.58;;;20.70;71.20;;;;;;5016614;28;20030;-91
2022/06/21 09:19:44;;;;;;;5.45;1.50;;;20.80;71.00;;;;;;5016412;28;20029;-91
2022/06/21 09:22:37;;;;;;;7.60;2.28;;;21.00;71.70;;;;;;5021763;28;20034;-92
2022/06/21 09:25:24;;;;;;;7.75;2.00;;;21.20;70.60;;;;;;5055105;28;20093;-91
2022/06/21 09:27:52;;;;;;;7.95;1.90;;;21.30;70.20;;;;;;5090894;28;20032;-92
2022/06/21 09:30:27;;;;;;;3.58;2.15;;;21.50;70.00;;;;;;5089729;28;20021;-91
2022/06/21 09:33:01;;;;;;;5.63;2.20;;;21.60;69.00;;;;;;5079961;28;20024;-89
2022/06/21 09:35:39;;;;;;;6.22;2.00;;;21.60;68.60;;;;;;5093908;28;20024;-89
2022/06/21 09:38:14;;;;;;;5.78;1.95;;;21.70;67.80;;;;;;5093648;28;20055;-91
2022/06/21 09:40:46;;;;;;;5.40;2.47;;;21.80;67.70;;;;;;5095536;28;20032;-90
2022/06/21 09:43:38;;;;;;;6.43;1.80;;;21.90;67.50;;;;;;5094946;28;20173;-91
2022/06/21 09:46:44;;;;;;;6.20;2.00;;;22.10;67.10;;;;;;5093776;28;20020;-92
2022/06/21 09:49:37;;;;;;;7.85;2.35;;;22.30;65.90;;;;;;5073854;28;20057;-92
2022/06/21 09:52:18;;;;;;;4.60;1.92;;;22.30;64.80;;;;;;5074211;28;20056;-91
2022/06/21 09:55:14;;;;;;;5.25;1.83;;;22.40;64.40;;;;;;5073683;28;20108;-91
2022/06/21 09:58:15;;;;;;;5.80;1.83;;;22.50;64.40;;;;;;5073663;28;20021;-91
2022/06/21 10:00:48;;;;;;;12.90;1.73;;;22.60;64.20;;;;;;5076883;28;20523;-92
2022/06/21 10:03:33;;;;;;;6.72;1.67;;;22.80;64.00;;;;;;5078566;28;20445;-91
2022/06/21 10:06:28;;;;;;;5.35;1.60;;;22.90;63.30;;;;;;5076786;28;20036;-92
2022/06/21 10:09:12;;;;;;;3.63;1.67;;;23.00;63.10;;;;;;5078017;28;20474;-91
2022/06/21 10:12:04;;;;;;;6.47;1.75;;;23.20;62.10;;;;;;5078713;28;20032;-91
2022/06/21 10:14:51;;;;;;;6.20;1.95;;;23.20;61.50;;;;;;5076720;28;20481;-91
2022/06/21 10:17:35;;;;;;;4.50;1.88;;;23.30;61.80;;;;;;5078096;28;20033;-92
2022/06/21 10:20:34;;;;;;;7.30;2.42;;;23.50;61.80;;;;;;5077722;28;20119;-91
2022/06/21 10:23:32;;;;;;;6.90;1.60;;;23.70;61.70;;;;;;5076935;28;20440;-89
2022/06/21 10:26:42;;;;;;;6.93;1.88;;;23.90;61.60;;;;;;5083945;28;20028;-91
2022/06/21 10:29:45;;;;;;;6.30;1.73;;;24.00;60.80;;;;;;5076867;28;20033;-92
2022/06/21 10:32:30;;;;;;;3.25;1.83;;;23.90;60.40;;;;;;5081676;28;20028;-91
2022/06/21 10:35:34;;;;;;;5.80;2.05;;;23.80;60.60;;;;;;5081248;28;20024;-90
2022/06/21 10:38:21;;;;;;;4.60;2.17;;;23.90;60.50;;;;;;5076783;28;20052;-91
2022/06/21 10:40:58;;;;;;;11.05;2.20;;;23.90;60.10;;;;;;5076707;28;20060;-89
2022/06/21 10:43:48;;;;;;;9.73;2.10;;;23.90;59.70;;;;;;5076436;28;20027;-91
2022/06/21 10:46:20;;;;;;;4.93;1.88;;;24.00;60.30;;;;;;5076917;28;20032;-93
2022/06/21 10:49:17;;;;;;;4.90;1.73;;;24.10;59.50;;;;;;5081147;28;20016;-91
2022/06/21 10:52:00;;;;;;;4.95;1.95;;;24.30;59.90;;;;;;5083281;28;20501;-91
2022/06/21 10:55:06;;;;;;;9.40;1.90;;;24.30;59.10;;;;;;5077052;28;20111;-92
2022/06/21 10:57:53;;;;;;;4.43;1.50;;;24.30;58.50;;;;;;5076974;28;20044;-91
2022/06/21 11:03:28;;;;;;;5.50;1.88;;;24.60;58.40;;;;;;5079629;28;20027;-93
2022/06/21 11:06:05;;;;;;;4.25;2.10;;;24.70;58.10;;;;;;5084661;28;20028;-90
2022/06/21 11:08:41;;;;;;;11.73;1.90;;;24.90;57.80;;;;;;5087574;28;20085;-93
2022/06/21 11:11:21;;;;;;;5.40;1.80;;;24.90;57.30;;;;;;5091553;28;20036;-89
2022/06/21 11:13:59;;;;;;;7.07;1.88;;;25.00;57.10;;;;;;5098699;28;20032;-89
2022/06/21 11:16:47;;;;;;;6.22;1.90;;;25.10;56.70;;;;;;5097291;28;20025;-89
2022/06/21 11:19:18;;;;;;;4.85;1.75;;;25.00;56.20;;;;;;5106989;28;20017;-91
2022/06/21 11:21:47;;;;;;;6.05;1.98;;;25.00;56.00;;;;;;5086514;28;20033;-91
2022/06/21 11:24:48;;;;;;;6.05;2.03;;;25.10;55.80;;;;;;5079811;28;20052;-91
2022/06/21 11:27:32;;;;;;;4.53;1.42;;;25.30;54.80;;;;;;5080655;28;20036;-93
2022/06/21 11:30:24;;;;;;;3.97;1.40;;;25.40;54.60;;;;;;5076794;28;20033;-91
2022/06/21 11:33:28;;;;;;;4.68;1.48;;;25.40;54.40;;;;;;5080889;28;20029;-92
2022/06/21 11:36:15;;;;;;;4.45;1.52;;;25.50;54.40;;;;;;5087492;28;20040;-91
2022/06/21 11:39:14;;;;;;;6.43;1.67;;;25.70;53.80;;;;;;5117296;28;20090;-89
2022/06/21 11:42:05;;;;;;;6.33;1.90;;;25.80;53.60;;;;;;5118896;28;20308;-90
2022/06/21 11:44:48;;;;;;;4.88;1.58;;;25.80;53.80;;;;;;5119010;28;20041;-89
2022/06/21 11:47:53;;;;;;;6.32;2.58;;;26.00;54.20;;;;;;5118822;28;20032;-89
2022/06/21 11:50:23;;;;;;;9.40;2.05;;;26.30;54.40;;;;;;5117713;28;20035;-91
2022/06/21 11:53:11;;;;;;;11.73;2.08;;;26.50;54.50;;;;;;5118107;28;20084;-89
2022/06/21 11:56:00;;;;;;;7.55;1.88;;;26.70;54.60;;;;;;5118713;28;20032;-89
2022/06/21 11:58:52;;;;;;;7.28;1.83;;;26.90;54.60;;;;;;5118507;28;20008;-88
2022/06/21 12:01:32;;;;;;;6.65;2.05;;;27.10;54.30;;;;;;5118512;28;20104;-87
2022/06/21 12:04:25;;;;;;;8.88;2.38;;;27.10;54.20;;;;;;5117987;28;20023;-91
2022/06/21 12:07:00;;;;;;;8.00;2.38;;;27.00;53.70;;;;;;5118380;28;20070;-90
2022/06/21 12:09:41;;;;;;;8.50;2.17;;;27.00;53.50;;;;;;5118430;28;20118;-91
2022/06/21 12:12:54;;;;;;;6.45;2.22;;;27.10;53.30;;;;;;5118266;28;20024;-89
2022/06/21 12:15:37;;;;;;;7.15;2.20;;;27.10;53.10;;;;;;5100084;28;20044;-91
2022/06/21 12:18:14;;;;;;;13.35;2.03;;;27.10;53.10;;;;;;5118158;28;20024;-90
2022/06/21 12:20:58;;;;;;;4.43;1.67;;;27.10;53.40;;;;;;5117714;28;20033;-88
2022/06/21 12:23:44;;;;;;;6.13;1.85;;;27.00;53.10;;;;;;5118123;28;20024;-90
2022/06/21 12:26:18;;;;;;;4.78;2.10;;;27.10;53.40;;;;;;5117960;28;20039;-92
2022/06/21 12:28:45;;;;;;;7.65;1.80;;;27.10;53.40;;;;;;5118663;28;20016;-89
2022/06/21 12:31:17;;;;;;;7.30;1.95;;;27.10;53.00;;;;;;5117982;28;20040;-91
2022/06/21 12:33:47;;;;;;;5.57;1.83;;;27.10;52.80;;;;;;5117986;28;20088;-89
2022/06/21 12:36:22;;;;;;;7.10;1.40;;;27.20;52.80;;;;;;5118264;28;20008;-90
2022/06/21 12:39:10;;;;;;;5.43;1.83;;;27.20;52.70;;;;;;5118811;28;20076;-90
2022/06/21 12:41:49;;;;;;;9.52;2.22;;;27.40;52.70;;;;;;5117032;28;20091;-96
2022/06/21 12:44:37;;;;;;;6.95;1.92;;;27.30;52.10;;;;;;5116846;28;20107;-91
2022/06/21 12:47:33;;;;;;;8.48;2.55;;;27.20;52.10;;;;;;5116414;28;20043;-92
2022/06/21 12:50:37;;;;;;;6.53;1.98;;;27.30;52.00;;;;;;5117571;28;20004;-89
2022/06/21 12:53:25;;;;;;;5.55;1.75;;;27.40;51.90;;;;;;5117305;28;20024;-93
2022/06/21 12:56:31;;;;;;;4.68;1.65;;;27.50;51.70;;;;;;5117658;28;20016;-89
2022/06/21 12:59:09;;;;;;;7.68;1.95;;;27.70;51.30;;;;;;5111942;28;20035;-95
2022/06/21 13:02:06;;;;;;;7.75;1.83;;;27.80;50.80;;;;;;5094665;28;20052;-93
2022/06/21 13:05:10;;;;;;;6.00;1.88;;;28.10;51.10;;;;;;5096414;28;20096;-92
2022/06/21 13:08:23;;;;;;;6.18;1.60;;;28.20;50.70;;;;;;5106065;28;20065;-92
2022/06/21 13:11:33;;;;;;;5.28;1.70;;;28.50;50.20;;;;;;5095451;28;20089;-93
2022/06/21 13:14:30;;;;;;;3.30;1.35;;;28.60;49.70;;;;;;4997893;28;20065;-93
2022/06/21 13:17:20;;;;;;;5.15;1.75;;;28.70;49.40;;;;;;4997686;28;20026;-93
2022/06/21 13:19:58;;;;;;;6.85;1.33;;;28.90;49.20;;;;;;4997220;28;20087;-93
2022/06/21 13:22:30;;;;;;;5.28;1.45;;;28.90;48.80;;;;;;4997464;28;20033;-92
2022/06/21 13:25:17;;;;;;;5.35;1.67;;;29.00;48.40;;;;;;4997831;28;20030;-94
2022/06/21 13:28:19;;;;;;;4.68;1.55;;;29.10;47.80;;;;;;4994626;28;20068;-93
2022/06/21 13:31:16;;;;;;;2.70;1.30;;;29.10;47.50;;;;;;4976716;28;20454;-90
2022/06/21 13:34:06;;;;;;;8.15;1.90;;;29.20;47.50;;;;;;4980506;28;20023;-93
2022/06/21 13:36:39;;;;;;;4.60;1.80;;;29.10;46.80;;;;;;4981360;28;20034;-94
2022/06/21 13:39:28;;;;;;;3.88;1.65;;;29.20;46.80;;;;;;4981742;28;20030;-93
2022/06/21 13:45:01;;;;;;;6.63;1.48;;;29.50;46.30;;;;;;5043176;28;20036;-93
2022/06/21 13:47:50;;;;;;;6.45;1.60;;;29.60;46.00;;;;;;5078431;28;20028;-93
2022/06/21 13:50:22;;;;;;;2.80;1.30;;;29.60;46.10;;;;;;5079555;28;20033;-92
2022/06/21 13:52:48;;;;;;;3.55;1.55;;;29.80;46.00;;;;;;5087843;28;20036;-92
2022/06/21 13:55:55;;;;;;;4.32;1.45;;;30.00;45.50;;;;;;5094315;28;20038;-92
2022/06/21 13:58:32;;;;;;;5.68;1.83;;;29.90;45.00;;;;;;5078137;28;20032;-93
2022/06/21 14:01:05;;;;;;;5.05;1.50;;;29.60;45.70;;;;;;5078391;28;20053;-93
2022/06/21 14:03:50;;;;;;;5.25;1.70;;;29.40;45.60;;;;;;5077726;28;20035;-92
2022/06/21 14:07:00;;;;;;;3.10;1.50;;;29.40;45.50;;;;;;5078781;28;20037;-94
2022/06/21 14:09:53;;;;;;;5.43;1.98;;;29.70;45.50;;;;;;5057310;28;20040;-93
2022/06/21 14:12:37;;;;;;;6.72;1.40;;;29.90;45.00;;;;;;5078041;28;20021;-94
2022/06/21 14:15:26;;;;;;;6.70;1.77;;;30.20;44.70;;;;;;5086902;28;20036;-94
2022/06/21 14:18:17;;;;;;;5.95;2.05;;;30.20;44.00;;;;;;5082475;28;20029;-92